Time;durP1;ratioP1;P1;durP2;ratioP2;P2;SDS_P1;SDS_P2;PMS_P1;PMS_P2;Temp;Humidity;BMP_temperature;BMP_pressure;BME280_temperature;BME280_humidity;BME280_pressure;Samples;Min_cycle;Max_cycle;Signal;HPM_P1;HPM_P2
2022/01/30 00:01:36;;;;;;;12.57;8.57;;;;;;;20.19;26.95;94794.31;4947925;28;97977;-42
2022/01/30 00:04:02;;;;;;;10.57;8.55;;;;;;;20.26;27.03;94789.59;4947354;28;99600;-42
2022/01/30 00:06:27;;;;;;;15.43;10.20;;;;;;;20.07;26.75;94793.53;4952457;28;98431;-40
2022/01/30 00:08:53;;;;;;;15.93;11.13;;;;;;;20.18;27.21;94792.75;4950152;28;96904;-44
2022/01/30 00:11:22;;;;;;;14.13;9.23;;;;;;;20.20;26.97;94787.63;4936211;28;96931;-42
2022/01/30 00:13:48;;;;;;;16.30;10.43;;;;;;;20.17;27.07;94785.69;4935968;28;99526;-43
2022/01/30 00:16:16;;;;;;;13.73;9.57;;;;;;;20.16;27.35;94784.13;4946480;28;99344;-41
2022/01/30 00:23:47;;;;;;;9.93;6.93;;;;;;;20.47;26.17;94776.22;4952569;28;98088;-43
2022/01/30 00:26:15;;;;;;;11.20;6.72;;;;;;;20.44;26.45;94762.13;4936057;28;99648;-41
2022/01/30 00:28:40;;;;;;;11.13;7.40;;;;;;;20.42;26.46;94753.50;4936307;28;97354;-41
2022/01/30 00:31:06;;;;;;;11.82;8.77;;;;;;;20.33;26.53;94766.84;4943917;28;96886;-40
2022/01/30 00:33:31;;;;;;;15.38;11.50;;;;;;;20.42;28.42;94764.47;4954499;28;99509;-42
2022/01/30 00:35:57;;;;;;;17.77;13.38;;;;;;;20.21;28.09;94748.06;4954596;28;99646;-43
2022/01/30 00:38:23;;;;;;;16.73;11.73;;;;;;;20.30;26.53;94740.22;4935931;28;96815;-39
2022/01/30 00:40:50;;;;;;;13.30;11.32;;;;;;;20.37;28.61;94740.19;4936273;28;96902;-40
2022/01/30 00:43:16;;;;;;;15.20;11.38;;;;;;;20.41;28.76;94746.44;4935212;28;100025;-40
2022/01/30 00:45:42;;;;;;;17.00;11.90;;;;;;;20.57;28.15;94747.97;4935463;28;99257;-42
2022/01/30 00:48:07;;;;;;;12.85;10.73;;;;;;;20.60;27.27;94749.94;4936120;28;96761;-43
2022/01/30 00:50:33;;;;;;;12.00;9.90;;;;;;;20.55;27.60;94740.16;4936939;28;96921;-40
2022/01/30 00:52:58;;;;;;;16.90;8.00;;;;;;;20.56;26.53;94749.16;4935565;28;98116;-40
2022/01/30 00:55:25;;;;;;;9.93;7.57;;;;;;;20.59;26.42;94745.63;4935369;28;99296;-40
2022/01/30 00:57:51;;;;;;;9.80;7.10;;;;;;;20.53;26.35;94736.22;4935308;28;96723;-44
2022/01/30 01:00:17;;;;;;;10.70;7.75;;;;;;;20.52;27.07;94740.16;4947933;28;97724;-44
2022/01/30 01:02:43;;;;;;;11.32;9.05;;;;;;;20.15;27.36;94723.00;4958450;28;99654;-40
2022/01/30 01:05:08;;;;;;;16.08;12.02;;;;;;;20.25;27.36;94715.94;4958201;28;99578;-42
2022/01/30 01:07:35;;;;;;;15.00;10.98;;;;;;;19.90;27.97;94723.03;4958234;28;96881;-38
2022/01/30 01:25:47;;;;;;;12.20;9.48;;;;;;;20.93;26.99;94698.44;4935686;28;97097;-37
2022/01/30 01:28:13;;;;;;;12.68;9.52;;;;;;;20.94;27.18;94682.75;4939110;28;96849;-38
2022/01/30 01:30:38;;;;;;;10.85;9.10;;;;;;;20.99;27.97;94691.34;4949853;28;96931;-37
2022/01/30 01:33:04;;;;;;;12.48;9.63;;;;;;;20.99;28.76;94685.84;4957731;28;99581;-37
2022/01/30 01:35:30;;;;;;;11.95;8.73;;;;;;;21.03;29.61;94675.63;4953909;28;99366;-37
2022/01/30 01:37:55;;;;;;;11.27;8.07;;;;;;;21.24;28.60;94671.19;4956786;28;96741;-38
2022/01/30 01:40:21;;;;;;;12.57;8.85;;;;;;;21.26;27.81;94660.59;4956382;28;98614;-38
2022/01/30 01:42:47;;;;;;;12.98;9.15;;;;;;;21.25;28.73;94650.00;4954768;28;99621;-38
2022/01/30 01:45:18;;;;;;;12.88;9.65;;;;;;;21.32;27.84;94650.75;4952847;28;99458;-38
2022/01/30 01:47:44;;;;;;;13.55;9.90;;;;;;;21.13;29.94;94646.56;4954830;28;96777;-38
2022/01/30 01:50:16;;;;;;;14.48;10.35;;;;;;;21.23;28.96;94644.91;4950700;28;97827;-39
2022/01/30 01:52:42;;;;;;;14.02;9.63;;;;;;;21.24;27.96;94635.50;4945910;28;99745;-38
2022/01/30 01:55:08;;;;;;;14.63;10.50;;;;;;;21.11;28.32;94637.16;4941923;28;99577;-38
2022/01/30 01:57:33;;;;;;;20.23;14.15;;;;;;;21.09;29.66;94650.50;4938205;28;96696;-38
2022/01/30 01:59:59;;;;;;;20.65;14.75;;;;;;;21.17;30.39;94630.06;4938523;28;96876;-38
2022/01/30 02:02:26;;;;;;;19.27;13.23;;;;;;;21.14;30.05;94634.41;4936876;28;98491;-38
2022/01/30 02:04:51;;;;;;;18.80;12.45;;;;;;;21.14;30.22;94630.84;4957358;28;99466;-38
2022/01/30 02:09:42;;;;;;;17.98;10.68;;;;;;;21.00;30.68;94618.78;4937844;28;96883;-37
2022/01/30 02:12:16;;;;;;;16.08;10.45;;;;;;;21.15;29.77;94615.94;4937289;28;99379;-38
2022/01/30 02:15:09;;;;;;;15.40;10.38;;;;;;;21.11;29.57;94615.97;4955543;28;99049;-38
2022/01/30 02:25:56;;;;;;;16.27;11.45;;;;;;;21.08;28.51;94621.47;4953058;28;97033;-38
2022/01/30 02:28:21;;;;;;;19.67;12.57;;;;;;;20.96;28.30;94620.75;4957699;28;97043;-37
2022/01/30 02:30:56;;;;;;;17.40;12.73;;;;;;;20.91;28.79;94623.94;4957643;28;96637;-38
2022/01/30 02:33:22;;;;;;;19.00;13.88;;;;;;;20.89;28.32;94612.59;4943936;28;99257;-37
2022/01/30 02:35:47;;;;;;;19.42;13.73;;;;;;;20.95;29.08;94612.94;4950234;28;99261;-38
2022/01/30 02:38:15;;;;;;;16.23;12.07;;;;;;;21.06;28.37;94601.88;4956755;28;97065;-38
2022/01/30 02:40:43;;;;;;;17.42;12.88;;;;;;;20.90;28.69;94594.94;4956762;28;96870;-38
2022/01/30 02:43:08;;;;;;;15.55;12.30;;;;;;;20.69;29.01;94585.63;4946208;28;99589;-39
2022/01/30 02:45:37;;;;;;;16.88;12.93;;;;;;;20.54;29.82;94584.13;4937380;28;99313;-38
2022/01/30 02:53:04;;;;;;;16.55;11.73;;;;;;;20.33;29.84;94563.84;4945250;28;97886;-38
2022/01/30 02:55:30;;;;;;;14.30;10.60;;;;;;;20.37;29.47;94575.59;4944001;28;99358;-38
2022/01/30 02:57:56;;;;;;;14.40;10.55;;;;;;;20.40;29.54;94568.53;4937730;28;97060;-38
2022/01/30 03:00:21;;;;;;;13.73;10.20;;;;;;;20.36;29.27;94574.03;4937473;28;96963;-38
2022/01/30 03:02:47;;;;;;;13.38;10.07;;;;;;;20.41;29.17;94564.63;4943287;28;99085;-38
2022/01/30 03:05:12;;;;;;;14.68;10.05;;;;;;;20.40;29.13;94566.56;4956620;28;99094;-38
2022/01/30 03:07:37;;;;;;;14.02;9.77;;;;;;;20.41;29.33;94570.88;4956725;28;96789;-38
2022/01/30 03:10:03;;;;;;;14.55;9.88;;;;;;;20.38;28.63;94559.94;4957264;28;96943;-38
2022/01/30 03:12:29;;;;;;;13.20;9.25;;;;;;;20.46;28.86;94571.63;4949414;28;99718;-38
2022/01/30 03:14:54;;;;;;;12.45;8.65;;;;;;;20.53;28.83;94549.66;4936999;28;99364;-38
2022/01/30 03:17:20;;;;;;;14.35;9.57;;;;;;;20.23;30.13;94565.47;4941279;28;96759;-38
2022/01/30 03:19:45;;;;;;;17.92;12.88;;;;;;;20.43;32.04;94552.06;4946206;28;96973;-38
2022/01/30 03:22:11;;;;;;;19.98;14.18;;;;;;;20.53;31.28;94566.91;4935950;28;99522;-38
2022/01/30 03:24:37;;;;;;;20.98;15.18;;;;;;;20.61;31.46;94583.34;4954457;28;99162;-38
2022/01/30 03:27:09;;;;;;;21.77;15.65;;;;;;;20.64;31.05;94577.81;4956520;28;96697;-38
2022/01/30 03:29:36;;;;;;;21.50;13.95;;;;;;;20.66;31.11;94575.44;4956823;28;96808;-38
2022/01/30 03:32:02;;;;;;;16.23;12.73;;;;;;;20.64;31.05;94572.31;4956270;28;99523;-38
2022/01/30 03:34:27;;;;;;;19.38;12.23;;;;;;;20.61;30.79;94575.88;4956227;28;99658;-38
2022/01/30 03:36:53;;;;;;;14.93;11.80;;;;;;;20.62;30.96;94580.19;4956087;28;96999;-38
2022/01/30 03:39:18;;;;;;;16.50;11.60;;;;;;;20.57;30.96;94573.16;4956435;28;96914;-38
2022/01/30 03:41:44;;;;;;;14.98;11.68;;;;;;;20.53;30.83;94577.88;4954881;28;99642;-38
2022/01/30 03:44:09;;;;;;;17.60;12.02;;;;;;;20.47;30.43;94576.75;4956331;28;99519;-38
2022/01/30 03:46:35;;;;;;;15.32;11.57;;;;;;;20.41;30.60;94576.34;4956632;28;96594;-38
2022/01/30 03:49:00;;;;;;;15.68;10.68;;;;;;;20.37;30.45;94581.09;4956624;28;96952;-38
2022/01/30 03:51:25;;;;;;;14.52;10.75;;;;;;;20.24;30.60;94572.53;4955401;28;99489;-38
2022/01/30 03:53:51;;;;;;;14.63;10.52;;;;;;;20.32;30.19;94573.25;4954632;28;99441;-38
2022/01/30 03:56:16;;;;;;;16.58;11.00;;;;;;;20.25;30.06;94581.56;4956207;28;96641;-38
2022/01/30 03:58:42;;;;;;;14.75;9.95;;;;;;;20.26;30.30;94569.41;4956226;28;96930;-38
2022/01/30 04:01:07;;;;;;;12.93;9.60;;;;;;;20.27;30.06;94554.50;4956205;28;97916;-38
2022/01/30 04:03:33;;;;;;;12.73;9.65;;;;;;;20.24;29.86;94555.31;4956114;28;99009;-38
2022/01/30 04:05:59;;;;;;;13.35;8.68;;;;;;;20.24;29.73;94558.06;4956553;28;96757;-38
2022/01/30 04:08:24;;;;;;;12.60;8.85;;;;;;;20.14;29.52;94557.69;4956723;28;96896;-38
2022/01/30 04:10:50;;;;;;;14.73;9.25;;;;;;;20.17;29.46;94558.06;4955913;28;99573;-38
2022/01/30 04:13:15;;;;;;;13.77;9.13;;;;;;;20.14;29.63;94543.97;4955849;28;98839;-38
2022/01/30 04:15:41;;;;;;;11.40;8.73;;;;;;;20.15;29.53;94533.78;4955622;28;96760;-38
2022/01/30 04:18:07;;;;;;;11.13;8.60;;;;;;;20.11;29.25;94542.03;4956181;28;96992;-38
2022/01/30 04:20:33;;;;;;;9.57;8.25;;;;;;;20.03;29.32;94546.00;4955712;28;100182;-38
2022/01/30 04:22:58;;;;;;;11.20;8.30;;;;;;;20.11;29.07;94536.56;4955682;28;98976;-38
2022/01/30 04:25:24;;;;;;;12.23;8.57;;;;;;;20.16;29.23;94527.13;4956385;28;96844;-38
2022/01/30 04:27:49;;;;;;;10.25;7.88;;;;;;;20.09;28.85;94516.97;4956013;28;97005;-38
2022/01/30 04:30:15;;;;;;;9.20;7.50;;;;;;;20.03;29.15;94502.13;4955394;28;99546;-38
2022/01/30 04:32:43;;;;;;;12.02;7.97;;;;;;;20.08;28.98;94498.97;4955713;28;99011;-38
2022/01/30 04:35:18;;;;;;;9.93;7.05;;;;;;;20.10;28.91;94474.66;4955971;28;96699;-38
2022/01/30 04:38:07;;;;;;;10.57;7.72;;;;;;;20.06;28.67;94467.63;4955376;28;97097;-38
2022/01/30 05:05:06;;;;;;;9.45;6.57;;;;;;;20.08;28.07;94515.41;4954990;28;97019;-38
2022/01/30 05:07:29;;;;;;;8.00;6.13;;;;;;;20.03;28.25;94518.56;4955086;28;96772;-38
2022/01/30 05:09:54;;;;;;;7.90;6.20;;;;;;;20.00;28.22;94508.41;4955611;28;96864;-38
2022/01/30 05:12:20;;;;;;;9.38;6.18;;;;;;;20.03;27.83;94491.16;4955086;28;99597;-38
2022/01/30 05:14:46;;;;;;;8.70;6.25;;;;;;;20.03;28.13;94463.75;4955082;28;99199;-38
2022/01/30 05:17:11;;;;;;;8.38;6.22;;;;;;;20.06;27.83;94446.50;4955351;28;96539;-38
2022/01/30 05:19:37;;;;;;;8.57;5.85;;;;;;;20.01;27.57;94438.69;4955548;28;96925;-38
2022/01/30 05:22:03;;;;;;;8.82;6.53;;;;;;;20.06;27.67;94427.31;4953773;28;99511;-38
2022/01/30 05:24:29;;;;;;;7.35;5.65;;;;;;;20.04;27.63;94424.19;4955295;28;99710;-38
2022/01/30 05:26:54;;;;;;;9.93;6.57;;;;;;;20.00;27.82;94409.72;4955395;28;96806;-38
2022/01/30 05:29:20;;;;;;;8.55;6.00;;;;;;;20.06;27.39;94388.91;4954100;28;97054;-38
2022/01/30 05:31:46;;;;;;;8.27;5.85;;;;;;;19.97;27.42;94405.03;4954284;28;99551;-38
2022/01/30 05:34:11;;;;;;;7.95;6.00;;;;;;;19.97;27.73;94399.53;4954756;28;98259;-38
2022/01/30 05:36:38;;;;;;;9.05;6.07;;;;;;;19.97;27.89;94418.72;4953731;28;96894;-38
2022/01/30 05:39:04;;;;;;;9.50;6.55;;;;;;;20.02;27.69;94418.31;4955277;28;96852;-38
2022/01/30 05:41:30;;;;;;;7.40;6.00;;;;;;;20.01;27.58;94435.94;4954758;28;99746;-38
2022/01/30 05:43:58;;;;;;;8.45;5.90;;;;;;;20.05;27.62;94439.44;4954831;28;97654;-38
2022/01/30 05:46:39;;;;;;;8.23;6.32;;;;;;;19.96;27.17;94455.56;4958075;28;96725;-38
2022/01/30 05:49:05;;;;;;;8.63;5.78;;;;;;;19.97;27.32;94470.81;4959129;28;97303;-38
2022/01/30 05:51:30;;;;;;;8.13;5.50;;;;;;;20.02;27.23;94488.81;4957831;28;99428;-38
2022/01/30 05:53:56;;;;;;;7.70;5.80;;;;;;;20.02;27.25;94484.13;4957814;28;99521;-38
2022/01/30 05:56:21;;;;;;;8.80;5.82;;;;;;;19.97;27.30;94470.81;4957872;28;96667;-38
2022/01/30 05:58:47;;;;;;;9.43;6.25;;;;;;;19.95;27.24;94467.69;4958061;28;96939;-38
2022/01/30 06:01:12;;;;;;;7.18;5.40;;;;;;;19.95;27.45;94463.00;4957664;28;99573;-39
2022/01/30 06:03:38;;;;;;;8.40;6.10;;;;;;;19.94;26.94;94461.44;4958234;28;97209;-38
2022/01/30 06:06:03;;;;;;;9.65;6.00;;;;;;;19.93;27.42;94453.59;4958207;28;96575;-38
2022/01/30 06:11:26;;;;;;;9.90;6.38;;;;;;;19.95;27.14;94445.78;4955312;28;99105;-38
2022/01/30 06:13:52;;;;;;;8.95;6.15;;;;;;;19.92;27.09;94430.13;4957663;28;99302;-38
2022/01/30 06:16:17;;;;;;;8.68;6.10;;;;;;;19.95;26.75;94418.34;4958068;28;96896;-38
2022/01/30 06:18:43;;;;;;;8.80;6.13;;;;;;;19.91;27.32;94407.44;4957999;28;96830;-38
2022/01/30 06:21:09;;;;;;;8.45;5.80;;;;;;;19.92;26.73;94397.22;4957115;28;99697;-38
2022/01/30 06:23:36;;;;;;;7.90;5.47;;;;;;;19.86;26.82;94388.63;4957312;28;99248;-38
2022/01/30 06:26:02;;;;;;;7.85;5.47;;;;;;;19.83;27.20;94365.53;4957912;28;96596;-38
2022/01/30 06:28:27;;;;;;;8.38;5.85;;;;;;;19.81;26.91;94384.34;4957553;28;96925;-38
2022/01/30 06:30:53;;;;;;;7.35;5.95;;;;;;;19.84;27.09;94380.78;4957359;28;99493;-39
2022/01/30 06:33:18;;;;;;;10.88;6.45;;;;;;;19.90;26.81;94388.63;4957242;28;99593;-38
2022/01/30 06:35:43;;;;;;;7.75;6.20;;;;;;;19.85;26.69;94374.13;4957792;28;96891;-39
2022/01/30 06:38:09;;;;;;;8.20;5.78;;;;;;;19.88;26.76;94374.50;4957697;28;97025;-37
2022/01/30 06:40:34;;;;;;;8.38;5.70;;;;;;;19.98;26.67;94384.66;4957082;28;98230;-37
2022/01/30 06:43:00;;;;;;;7.55;5.80;;;;;;;20.03;26.89;94386.97;4956987;28;99137;-37
2022/01/30 06:45:26;;;;;;;8.02;5.90;;;;;;;19.99;26.91;94389.75;4957198;28;96670;-36
2022/01/30 06:47:52;;;;;;;8.75;5.97;;;;;;;19.95;26.67;94404.66;4957526;28;96912;-36
2022/01/30 06:50:17;;;;;;;9.98;6.75;;;;;;;19.94;27.19;94422.28;4956931;28;99576;-37
2022/01/30 06:52:43;;;;;;;9.65;6.35;;;;;;;19.92;26.81;94435.59;4957055;28;99234;-37
2022/01/30 06:55:08;;;;;;;10.23;6.85;;;;;;;19.97;26.71;94432.44;4957523;28;96656;-38
2022/01/30 06:57:34;;;;;;;8.60;6.50;;;;;;;19.93;26.97;94431.69;4957214;28;96904;-38
2022/01/30 06:59:59;;;;;;;8.02;5.85;;;;;;;19.97;26.50;94416.00;4956751;28;99246;-38
2022/01/30 07:02:25;;;;;;;8.55;6.57;;;;;;;20.01;26.78;94405.78;4957466;28;97881;-39
2022/01/30 07:04:50;;;;;;;8.48;6.55;;;;;;;19.99;26.81;94399.94;4957279;28;96638;-39
2022/01/30 07:07:16;;;;;;;10.45;6.72;;;;;;;19.98;26.48;94393.69;4957274;28;97005;-39
2022/01/30 07:09:41;;;;;;;11.50;7.50;;;;;;;19.98;26.64;94382.72;4956258;28;99434;-39
2022/01/30 07:12:07;;;;;;;11.07;6.35;;;;;;;20.03;26.33;94381.50;4956724;28;99516;-38
2022/01/30 07:14:33;;;;;;;11.10;6.78;;;;;;;20.03;26.49;94386.97;4956979;28;96643;-38
2022/01/30 07:16:58;;;;;;;10.45;6.50;;;;;;;19.99;26.22;94399.94;4957177;28;96953;-38
2022/01/30 07:19:24;;;;;;;8.77;6.68;;;;;;;20.01;26.35;94394.81;4956457;28;99834;-39
2022/01/30 07:21:49;;;;;;;10.35;6.15;;;;;;;20.03;26.70;94392.47;4956782;28;99804;-38
2022/01/30 07:24:15;;;;;;;10.75;6.72;;;;;;;19.92;26.48;94391.75;4956967;28;96735;-38
2022/01/30 07:26:40;;;;;;;9.27;6.22;;;;;;;19.99;26.45;94408.94;4957294;28;96919;-38
2022/01/30 07:29:06;;;;;;;10.15;6.63;;;;;;;19.99;26.46;94394.44;4956455;28;98129;-39
2022/01/30 07:31:32;;;;;;;7.97;6.18;;;;;;;19.93;26.76;94401.53;4956501;28;99591;-39
2022/01/30 07:33:58;;;;;;;9.75;6.80;;;;;;;19.94;26.35;94416.78;4956586;28;96775;-39
2022/01/30 07:36:23;;;;;;;9.35;6.88;;;;;;;19.95;26.81;94412.88;4956446;28;96892;-38
2022/01/30 07:38:49;;;;;;;8.77;6.00;;;;;;;19.94;26.68;94411.31;4956235;28;99453;-38
2022/01/30 07:41:14;;;;;;;10.85;6.80;;;;;;;19.85;27.09;94403.50;4956468;28;99479;-39
2022/01/30 07:43:40;;;;;;;8.82;6.00;;;;;;;19.93;26.95;94415.22;4956582;28;96983;-38
2022/01/30 07:46:05;;;;;;;9.02;6.10;;;;;;;19.92;26.80;94430.91;4955518;28;96957;-39
2022/01/30 07:48:31;;;;;;;8.77;6.45;;;;;;;19.90;26.54;94421.50;4956223;28;99410;-38
2022/01/30 07:50:57;;;;;;;9.32;6.72;;;;;;;19.94;26.51;94414.06;4956564;28;99558;-39
2022/01/30 07:53:22;;;;;;;9.07;5.80;;;;;;;19.81;26.41;94414.47;4956664;28;96563;-39
2022/01/30 07:55:48;;;;;;;9.05;6.40;;;;;;;19.89;26.54;94425.44;4956583;28;96914;-39
2022/01/30 07:58:13;;;;;;;8.60;6.38;;;;;;;19.95;26.28;94412.88;4955554;28;99253;-39
2022/01/30 08:00:39;;;;;;;9.02;6.30;;;;;;;19.84;26.48;94402.72;4955944;28;99656;-39
2022/01/30 08:03:04;;;;;;;7.72;5.88;;;;;;;19.80;26.40;94369.06;4956422;28;96769;-38
2022/01/30 08:05:30;;;;;;;9.40;6.55;;;;;;;19.85;26.17;94382.34;4956268;28;96943;-39
2022/01/30 08:07:55;;;;;;;9.32;6.78;;;;;;;20.00;26.20;94379.56;4955328;28;99486;-39
2022/01/30 08:10:21;;;;;;;10.95;6.57;;;;;;;19.88;26.40;94382.72;4955922;28;99320;-39
2022/01/30 08:12:46;;;;;;;9.20;6.60;;;;;;;19.87;26.19;94367.47;4956689;28;96714;-38
2022/01/30 08:15:12;;;;;;;7.43;6.63;;;;;;;19.85;26.18;94333.03;4956709;28;97099;-38
2022/01/30 08:17:38;;;;;;;10.05;6.32;;;;;;;19.82;25.99;94344.78;4955896;28;97234;-39
2022/01/30 08:20:06;;;;;;;9.27;6.55;;;;;;;19.84;26.22;94347.91;4955745;28;98977;-39
2022/01/30 08:22:31;;;;;;;11.13;6.75;;;;;;;19.88;26.31;94352.59;4955920;28;96602;-38
2022/01/30 08:24:57;;;;;;;9.68;6.50;;;;;;;19.88;26.24;94358.06;4956070;28;96879;-38
2022/01/30 08:27:23;;;;;;;9.77;6.05;;;;;;;19.88;26.06;94363.53;4955567;28;99705;-38
2022/01/30 08:29:48;;;;;;;9.70;6.13;;;;;;;19.92;25.75;94369.81;4955520;28;99614;-39
2022/01/30 08:32:13;;;;;;;10.73;6.35;;;;;;;19.88;25.85;94374.50;4956155;28;96581;-39
2022/01/30 08:34:39;;;;;;;10.35;6.20;;;;;;;19.94;25.89;94379.22;4955854;28;96911;-38
2022/01/30 08:37:05;;;;;;;10.52;6.93;;;;;;;19.87;26.18;94375.69;4955111;28;97897;-39
2022/01/30 08:39:30;;;;;;;8.35;5.90;;;;;;;19.85;25.95;94362.41;4955587;28;99125;-39
2022/01/30 08:41:56;;;;;;;7.85;6.35;;;;;;;19.88;26.04;94358.84;4956152;28;97772;-39
2022/01/30 08:44:21;;;;;;;10.38;6.85;;;;;;;19.89;25.75;94359.66;4955883;28;97045;-39
2022/01/30 08:46:47;;;;;;;9.57;6.82;;;;;;;19.96;25.95;94373.31;4954761;28;99319;-38
2022/01/30 08:49:14;;;;;;;9.48;6.50;;;;;;;19.99;25.68;94367.81;4955402;28;99324;-38
2022/01/30 08:51:39;;;;;;;10.05;6.70;;;;;;;19.98;25.71;94370.97;4955788;28;96645;-38
2022/01/30 08:54:05;;;;;;;11.52;6.32;;;;;;;19.99;25.65;94375.25;4955731;28;96587;-38
2022/01/30 08:56:30;;;;;;;9.15;6.68;;;;;;;19.97;25.62;94380.34;4955175;28;99535;-38
2022/01/30 08:58:56;;;;;;;11.13;6.55;;;;;;;20.05;25.77;94379.13;4954766;28;99247;-38
2022/01/30 09:01:21;;;;;;;9.90;6.43;;;;;;;19.99;25.55;94372.50;4955773;28;96661;-38
2022/01/30 09:03:46;;;;;;;9.32;6.90;;;;;;;19.93;25.94;94363.94;4956351;28;96986;-38
2022/01/30 09:06:12;;;;;;;9.48;6.80;;;;;;;20.04;25.64;94380.31;4955257;28;99837;-38
2022/01/30 09:08:37;;;;;;;9.38;6.35;;;;;;;20.04;25.57;94399.50;4955064;28;99127;-38
2022/01/30 09:11:03;;;;;;;9.80;6.18;;;;;;;20.00;25.99;94365.84;4955193;28;97535;-38
2022/01/30 09:13:28;;;;;;;10.98;6.75;;;;;;;19.98;25.87;94369.00;4954235;28;96987;-38
2022/01/30 09:15:57;;;;;;;11.05;7.55;;;;;;;19.99;25.69;94380.75;4954980;28;99528;-39
2022/01/30 09:18:22;;;;;;;10.52;7.18;;;;;;;19.97;26.13;94372.94;4954943;28;99567;-38
2022/01/30 09:20:48;;;;;;;10.68;7.05;;;;;;;20.04;25.61;94360.34;4957713;28;96554;-38
2022/01/30 09:23:13;;;;;;;12.10;7.47;;;;;;;20.06;25.68;94386.19;4958945;28;96927;-38
2022/01/30 09:25:39;;;;;;;11.88;6.85;;;;;;;20.03;25.62;94384.25;4958417;28;99689;-38
2022/01/30 09:28:05;;;;;;;10.27;6.63;;;;;;;20.07;25.52;94385.00;4958661;28;99602;-38
2022/01/30 09:30:30;;;;;;;9.45;7.32;;;;;;;20.03;25.71;94376.00;4958711;28;96689;-38
2022/01/30 09:32:55;;;;;;;9.30;7.10;;;;;;;20.03;25.29;94348.59;4958804;28;96899;-38
2022/01/30 09:35:21;;;;;;;11.18;6.72;;;;;;;20.08;25.41;94356.41;4957712;28;99700;-38
2022/01/30 09:37:46;;;;;;;9.85;6.55;;;;;;;20.11;25.68;94330.91;4953525;28;99357;-38
2022/01/30 09:40:14;;;;;;;9.80;7.00;;;;;;;20.17;25.51;94330.50;4947346;28;96764;-38
2022/01/30 09:42:43;;;;;;;9.40;6.60;;;;;;;20.32;25.71;94299.00;4938908;28;96954;-38
2022/01/30 09:45:10;;;;;;;10.20;6.88;;;;;;;20.46;26.00;94302.78;4949659;28;99433;-38
2022/01/30 09:47:35;;;;;;;11.48;7.00;;;;;;;20.55;26.45;94289.38;4959822;28;99125;-38
2022/01/30 09:50:01;;;;;;;18.65;7.63;;;;;;;20.71;26.16;94277.84;4940184;28;96885;-44
2022/01/30 09:52:26;;;;;;;15.10;7.78;;;;;;;20.77;26.01;94278.19;4952402;28;97334;-42
2022/01/30 09:54:51;;;;;;;14.60;8.23;;;;;;;20.92;25.78;94268.59;4945837;28;99373;-43
2022/01/30 09:57:17;;;;;;;13.93;8.88;;;;;;;20.95;25.50;94273.28;4948944;28;99411;-42
2022/01/30 09:59:43;;;;;;;13.15;7.57;;;;;;;21.09;25.22;94255.88;4957255;28;96759;-43
2022/01/30 10:02:08;;;;;;;18.48;10.95;;;;;;;21.18;25.25;94249.88;4958029;28;97087;-44
2022/01/30 10:04:34;;;;;;;15.10;10.38;;;;;;;21.16;25.30;94247.53;4957249;28;99388;-46
2022/01/30 10:07:09;;;;;;;16.80;9.73;;;;;;;21.20;25.85;94255.72;4956848;28;98934;-48
2022/01/30 10:09:37;;;;;;;16.20;9.07;;;;;;;21.47;26.44;94252.22;4977261;28;96756;-44
2022/01/30 10:12:16;;;;;;;15.20;9.15;;;;;;;21.70;26.12;94247.97;4977417;28;96893;-46
2022/01/30 10:15:00;;;;;;;12.52;7.78;;;;;;;21.83;25.96;94240.72;4957362;28;99940;-43
2022/01/30 10:17:37;;;;;;;11.50;8.13;;;;;;;21.76;27.18;94244.34;4957915;28;99201;-42
2022/01/30 10:20:10;;;;;;;14.15;9.82;;;;;;;21.85;26.81;94254.81;4957733;28;96747;-42
2022/01/30 10:22:47;;;;;;;15.35;9.48;;;;;;;22.05;27.17;94251.38;4936586;28;97056;-43
2022/01/30 10:25:17;;;;;;;14.10;9.32;;;;;;;22.15;26.31;94255.88;4935734;28;100002;-44
2022/01/30 10:27:43;;;;;;;14.35;9.40;;;;;;;22.19;25.61;94267.59;4937988;28;99759;-44
2022/01/30 10:30:08;;;;;;;16.27;10.38;;;;;;;22.23;25.06;94272.28;4937422;28;96718;-43
2022/01/30 10:32:34;;;;;;;13.07;9.55;;;;;;;22.18;24.85;94271.56;4954289;28;96941;-43
2022/01/30 10:35:04;;;;;;;13.05;9.02;;;;;;;22.18;24.88;94255.06;4955591;28;99161;-45
2022/01/30 10:37:30;;;;;;;14.02;8.43;;;;;;;22.19;24.61;94228.34;4954946;28;99304;-44
2022/01/30 10:39:57;;;;;;;16.10;9.65;;;;;;;22.13;24.45;94225.28;4955373;28;97254;-41
2022/01/30 10:42:41;;;;;;;15.25;9.20;;;;;;;22.12;24.64;94220.97;4940271;28;96957;-42
2022/01/30 10:45:15;;;;;;;11.70;8.93;;;;;;;22.12;24.87;94218.22;4947954;28;99659;-45
2022/01/30 10:47:41;;;;;;;15.07;9.02;;;;;;;22.16;24.47;94210.69;4954087;28;98921;-41
2022/01/30 10:50:14;;;;;;;13.15;8.75;;;;;;;22.07;24.99;94199.47;4954530;28;97105;-41
2022/01/30 10:52:56;;;;;;;13.05;9.10;;;;;;;22.08;24.57;94190.00;4939671;28;96848;-45
2022/01/30 10:55:35;;;;;;;13.82;8.65;;;;;;;22.03;24.90;94176.75;4937895;28;99362;-41
2022/01/30 10:58:01;;;;;;;12.43;9.02;;;;;;;21.97;24.67;94167.44;4956388;28;99398;-40
2022/01/30 11:00:40;;;;;;;13.48;8.40;;;;;;;21.99;24.65;94173.28;4937664;28;96716;-41
2022/01/30 11:03:09;;;;;;;13.02;8.60;;;;;;;21.99;24.67;94176.81;4937945;28;96866;-40
2022/01/30 11:05:57;;;;;;;12.98;8.38;;;;;;;22.01;24.65;94168.16;4937420;28;99760;-45
2022/01/30 11:08:24;;;;;;;12.23;8.63;;;;;;;21.94;24.95;94173.78;4938537;28;100371;-42
2022/01/30 11:11:11;;;;;;;12.15;8.32;;;;;;;21.92;24.88;94177.72;4950446;28;97130;-41
2022/01/30 11:13:48;;;;;;;14.07;8.98;;;;;;;21.94;24.44;94154.53;4949610;28;96825;-41
2022/01/30 11:18:58;;;;;;;11.13;8.40;;;;;;;21.99;24.65;94123.81;4953939;28;96996;-40
2022/01/30 11:21:23;;;;;;;11.30;7.97;;;;;;;22.02;25.00;94120.22;4958806;28;96719;-41
2022/01/30 11:23:52;;;;;;;11.82;8.05;;;;;;;22.02;24.78;94123.72;4923346;28;96802;-42
2022/01/30 11:26:18;;;;;;;14.07;8.73;;;;;;;22.04;24.98;94128.81;4936962;28;98851;-42
2022/01/30 11:28:44;;;;;;;10.43;7.63;;;;;;;22.00;24.56;94139.09;4949324;28;99282;-43
2022/01/30 11:31:10;;;;;;;11.27;7.70;;;;;;;21.98;24.41;94130.50;4955672;28;96654;-42
2022/01/30 11:33:36;;;;;;;10.75;8.27;;;;;;;22.00;24.43;94144.59;4957165;28;96902;-44
2022/01/30 11:36:01;;;;;;;11.65;7.88;;;;;;;21.98;24.48;94152.50;4955345;28;99436;-43
2022/01/30 11:38:27;;;;;;;9.13;7.45;;;;;;;21.97;24.54;94145.44;4943639;28;99495;-41
2022/01/30 11:41:12;;;;;;;10.63;8.00;;;;;;;21.92;24.60;94154.94;4956057;28;97608;-41
2022/01/30 11:43:37;;;;;;;12.63;7.82;;;;;;;21.89;24.68;94133.78;4955715;28;96881;-43
2022/01/30 11:46:15;;;;;;;12.57;7.50;;;;;;;21.85;24.87;94124.81;4956260;28;99875;-42
2022/01/30 11:48:41;;;;;;;12.85;8.20;;;;;;;21.85;25.06;94125.59;4956364;28;99812;-42
2022/01/30 11:51:07;;;;;;;13.05;8.00;;;;;;;21.87;25.07;94119.69;4956789;28;96765;-42
2022/01/30 11:53:32;;;;;;;12.85;7.85;;;;;;;21.90;24.78;94119.63;4956730;28;96940;-42
2022/01/30 11:56:00;;;;;;;11.68;8.00;;;;;;;21.92;24.57;94100.75;4956101;28;100218;-42
2022/01/30 11:58:35;;;;;;;11.52;7.90;;;;;;;21.94;24.70;94103.06;4956148;28;99473;-41
2022/01/30 12:01:25;;;;;;;9.32;7.18;;;;;;;21.94;24.58;94097.56;4956756;28;96642;-42
2022/01/30 12:03:56;;;;;;;11.50;7.72;;;;;;;21.98;24.85;94089.25;4956512;28;96890;-41
2022/01/30 12:06:25;;;;;;;10.70;7.63;;;;;;;22.03;24.57;94083.28;4955493;28;99649;-45
2022/01/30 12:08:51;;;;;;;9.75;7.55;;;;;;;22.05;24.57;94109.13;4955857;28;99569;-41
2022/01/30 12:11:37;;;;;;;12.27;7.70;;;;;;;22.07;24.58;94105.97;4956173;28;96859;-41
2022/01/30 12:14:04;;;;;;;16.20;8.18;;;;;;;21.98;24.65;94097.50;4956590;28;96875;-45
2022/01/30 12:16:51;;;;;;;9.48;7.72;;;;;;;21.99;24.52;94099.06;4955800;28;99966;-42
2022/01/30 12:19:40;;;;;;;10.80;7.78;;;;;;;21.94;24.86;94091.28;4952038;28;99493;-43
2022/01/30 12:22:18;;;;;;;10.77;7.57;;;;;;;21.91;24.47;94076.41;4956235;28;96574;-43
2022/01/30 12:24:48;;;;;;;10.13;7.45;;;;;;;21.81;24.74;94082.88;4956670;28;96968;-44
2022/01/30 12:27:13;;;;;;;11.60;7.85;;;;;;;21.69;25.04;94076.81;4955674;28;100400;-42
2022/01/30 12:29:40;;;;;;;10.43;7.22;;;;;;;21.71;25.05;94076.38;4949825;28;99926;-41
2022/01/30 12:32:20;;;;;;;10.45;7.03;;;;;;;21.56;25.30;94060.13;4942737;28;96877;-42
2022/01/30 12:35:01;;;;;;;10.55;7.13;;;;;;;21.67;25.99;94045.44;4955771;28;97809;-42